Time;durP1;ratioP1;P1;durP2;ratioP2;P2;SDS_P1;SDS_P2;PMS_P1;PMS_P2;Temp;Humidity;BMP_temperature;BMP_pressure;BME280_temperature;BME280_humidity;BME280_pressure;Samples;Min_cycle;Max_cycle;Signal;HPM_P1;HPM_P2
2023/08/04 00:00:23;;;;;;;3.35;1.90;;;16.00;99.90;;;;;;5181292;28;20057;-70
2023/08/04 00:03:00;;;;;;;2.20;1.80;;;16.00;99.90;;;;;;5110677;28;20069;-72
2023/08/04 00:05:31;;;;;;;1.55;1.45;;;16.00;99.90;;;;;;5114487;28;20041;-69
2023/08/04 00:08:03;;;;;;;2.38;1.55;;;16.10;99.90;;;;;;5087956;28;20050;-71
2023/08/04 00:10:34;;;;;;;3.45;1.55;;;16.10;99.90;;;;;;5082598;28;20043;-71
2023/08/04 00:13:09;;;;;;;1.92;1.33;;;16.20;99.90;;;;;;5098295;29;20047;-69
2023/08/04 00:15:41;;;;;;;1.40;1.30;;;16.10;99.90;;;;;;5065014;28;20691;-72
2023/08/04 00:18:13;;;;;;;3.92;1.98;;;16.10;99.90;;;;;;5077707;28;20048;-70
2023/08/04 00:20:46;;;;;;;2.33;1.58;;;16.20;99.90;;;;;;5079718;28;20062;-70
2023/08/04 00:23:17;;;;;;;3.55;1.70;;;16.20;99.90;;;;;;5084925;28;20382;-67
2023/08/04 00:25:52;;;;;;;2.00;1.52;;;16.20;99.90;;;;;;5098180;29;20047;-66
2023/08/04 00:28:27;;;;;;;4.00;1.67;;;16.20;99.90;;;;;;5119085;28;20344;-67
2023/08/04 00:31:01;;;;;;;1.77;1.48;;;16.10;99.90;;;;;;5164573;28;20047;-67
2023/08/04 00:33:33;;;;;;;;;;;16.10;99.90;;;;;;5087030;28;20057;-67
2023/08/04 00:36:06;;;;;;;3.05;1.40;;;16.10;99.90;;;;;;5101575;29;19934;-69
2023/08/04 00:38:41;;;;;;;2.15;1.40;;;16.10;99.90;;;;;;5090637;29;20045;-68
2023/08/04 00:41:12;;;;;;;4.93;1.20;;;16.10;99.90;;;;;;5066065;28;20050;-68
2023/08/04 00:43:48;;;;;;;2.22;1.13;;;16.10;99.90;;;;;;5095029;29;20058;-67
2023/08/04 00:46:23;;;;;;;3.40;1.60;;;16.10;99.90;;;;;;5063887;29;20543;-67
2023/08/04 00:48:58;;;;;;;2.95;1.38;;;16.10;99.90;;;;;;5166208;28;20047;-67
2023/08/04 00:51:36;;;;;;;3.72;2.10;;;16.10;99.90;;;;;;5090796;28;20253;-67
2023/08/04 00:54:08;;;;;;;3.22;1.73;;;16.10;99.90;;;;;;5115571;28;20069;-70
2023/08/04 00:56:40;;;;;;;2.35;1.42;;;16.10;99.90;;;;;;5082996;28;20061;-68
2023/08/04 00:59:15;;;;;;;1.67;1.27;;;16.10;99.90;;;;;;5100130;28;20053;-67
2023/08/04 01:01:49;;;;;;;1.70;1.27;;;16.10;99.90;;;;;;5113936;23;20053;-85
2023/08/04 01:04:24;;;;;;;2.65;1.42;;;16.00;99.90;;;;;;5138527;28;20034;-86
2023/08/04 01:07:25;;;;;;;1.80;1.58;;;16.00;99.90;;;;;;5139063;28;20039;-84
2023/08/04 01:10:27;;;;;;;1.83;1.27;;;16.00;99.90;;;;;;5140751;28;20069;-85
2023/08/04 01:13:05;;;;;;;1.50;1.30;;;15.90;99.90;;;;;;5139882;28;20045;-85
2023/08/04 01:15:38;;;;;;;1.50;1.10;;;15.90;99.90;;;;;;5138095;28;20046;-84
2023/08/04 01:18:09;;;;;;;3.25;1.38;;;15.90;99.90;;;;;;5138467;28;20041;-85
2023/08/04 01:20:45;;;;;;;2.17;1.75;;;16.00;99.90;;;;;;5140208;28;20034;-85
2023/08/04 01:23:17;;;;;;;2.35;1.40;;;16.00;99.90;;;;;;5154790;28;20045;-85
2023/08/04 01:25:49;;;;;;;1.70;1.50;;;16.00;99.90;;;;;;5138437;28;20333;-85
2023/08/04 01:28:22;;;;;;;3.00;1.20;;;16.00;99.90;;;;;;5138298;28;20034;-85
2023/08/04 01:30:58;;;;;;;1.60;1.50;;;16.00;99.90;;;;;;5139800;28;20054;-86
2023/08/04 01:33:35;;;;;;;2.33;1.20;;;16.10;99.90;;;;;;5154517;28;20070;-86
2023/08/04 01:36:10;;;;;;;1.92;1.40;;;16.10;99.90;;;;;;5122453;28;20048;-85
2023/08/04 01:38:41;;;;;;;;;;;16.00;99.90;;;;;;5222223;28;20035;-85
2023/08/04 01:41:13;;;;;;;2.58;1.17;;;16.00;99.90;;;;;;5138138;28;19906;-84
2023/08/04 01:43:45;;;;;;;1.40;1.30;;;15.90;99.90;;;;;;5121605;28;20045;-85
2023/08/04 01:46:16;;;;;;;1.38;1.17;;;16.00;99.90;;;;;;5153048;28;20049;-85
2023/08/04 01:48:50;;;;;;;2.22;1.30;;;16.00;99.90;;;;;;5139669;28;20038;-85
2023/08/04 01:55:12;;;;;;;2.08;1.20;;;16.10;99.90;;;;;;5151830;28;20049;-85
2023/08/04 01:57:43;;;;;;;2.25;1.38;;;16.20;99.90;;;;;;5128018;28;20035;-85
2023/08/04 02:00:16;;;;;;;2.30;1.40;;;16.20;99.90;;;;;;5138995;28;20035;-85
2023/08/04 02:03:11;;;;;;;1.55;1.05;;;16.10;99.90;;;;;;5130316;28;20027;-86
2023/08/04 02:05:49;;;;;;;5.15;1.60;;;16.10;99.90;;;;;;5122549;28;20050;-86
2023/08/04 02:08:22;;;;;;;2.50;1.38;;;16.20;99.90;;;;;;5171178;28;20212;-84
2023/08/04 02:10:54;;;;;;;1.90;1.60;;;16.20;99.90;;;;;;5139893;28;20044;-85
2023/08/04 02:13:30;;;;;;;2.78;1.50;;;16.30;99.90;;;;;;5139497;28;20328;-85
2023/08/04 02:16:07;;;;;;;1.20;1.10;;;16.20;99.90;;;;;;5122849;28;20054;-85
2023/08/04 02:18:39;;;;;;;2.60;1.20;;;16.10;99.90;;;;;;5121010;28;20041;-85
2023/08/04 02:21:12;;;;;;;1.38;1.08;;;16.10;99.90;;;;;;5121365;28;20041;-86
2023/08/04 02:23:45;;;;;;;1.33;1.17;;;16.10;99.90;;;;;;5139460;28;20045;-84
2023/08/04 02:26:18;;;;;;;1.77;1.67;;;16.10;99.90;;;;;;5122970;28;20034;-85
2023/08/04 02:28:52;;;;;;;1.30;1.20;;;16.20;99.90;;;;;;5137861;28;20035;-86
2023/08/04 02:31:32;;;;;;;1.67;1.35;;;16.10;99.90;;;;;;5138821;28;20038;-86
2023/08/04 02:34:09;;;;;;;2.97;1.83;;;16.10;99.90;;;;;;5138305;28;20041;-86
2023/08/04 02:36:43;;;;;;;2.88;1.33;;;16.00;99.90;;;;;;5138348;28;20054;-85
2023/08/04 02:39:17;;;;;;;2.33;1.23;;;16.00;99.90;;;;;;5139297;28;20132;-86
2023/08/04 02:41:49;;;;;;;3.95;1.30;;;15.90;99.90;;;;;;5154114;28;20049;-85
2023/08/04 02:44:21;;;;;;;3.05;1.38;;;15.90;99.90;;;;;;5137211;28;20039;-86
2023/08/04 02:46:52;;;;;;;1.30;1.20;;;15.80;99.90;;;;;;5137075;28;20045;-85
2023/08/04 02:49:28;;;;;;;2.22;1.30;;;15.80;99.90;;;;;;5120886;28;20039;-86
2023/08/04 02:52:02;;;;;;;1.80;1.27;;;15.80;99.90;;;;;;5121908;28;20053;-87
2023/08/04 02:55:00;;;;;;;2.05;1.20;;;15.80;99.90;;;;;;5133994;28;20037;-85
2023/08/04 02:57:36;;;;;;;1.50;1.15;;;15.80;99.90;;;;;;5139485;28;20035;-86
2023/08/04 03:00:10;;;;;;;2.20;1.20;;;15.90;99.90;;;;;;5141547;28;20035;-88
2023/08/04 03:02:44;;;;;;;2.50;1.48;;;15.90;99.90;;;;;;5125417;28;20041;-87
2023/08/04 03:05:19;;;;;;;1.42;1.10;;;15.90;99.90;;;;;;5157121;28;20041;-85
2023/08/04 03:07:51;;;;;;;1.67;1.50;;;16.00;99.90;;;;;;5124012;28;20061;-86
2023/08/04 03:10:25;;;;;;;1.40;1.30;;;16.00;99.90;;;;;;5140578;28;20034;-86
2023/08/04 03:13:02;;;;;;;2.47;1.45;;;16.00;99.90;;;;;;5108672;28;20039;-85
2023/08/04 03:15:37;;;;;;;3.20;1.42;;;16.00;99.90;;;;;;5140532;28;20035;-86
2023/08/04 03:18:14;;;;;;;2.15;1.30;;;16.00;99.90;;;;;;5141660;28;20057;-86
2023/08/04 03:20:46;;;;;;;2.25;1.42;;;15.90;99.90;;;;;;5142416;28;20045;-86
2023/08/04 03:23:21;;;;;;;1.52;1.42;;;16.00;99.90;;;;;;5111210;28;20034;-87
2023/08/04 03:25:56;;;;;;;2.42;1.50;;;15.90;99.90;;;;;;5142150;28;20039;-88
2023/08/04 03:28:30;;;;;;;2.80;1.20;;;15.90;99.90;;;;;;5142140;28;20370;-87
2023/08/04 03:31:04;;;;;;;3.92;1.88;;;15.90;99.90;;;;;;5123892;28;20038;-85
2023/08/04 03:33:39;;;;;;;3.28;1.65;;;15.80;99.90;;;;;;5141299;28;20041;-85
2023/08/04 03:36:10;;;;;;;;;;;15.70;99.90;;;;;;5140940;28;20034;-85
2023/08/04 03:38:49;;;;;;;1.60;1.50;;;15.80;99.90;;;;;;5157415;28;19933;-87
2023/08/04 03:41:21;;;;;;;1.50;1.40;;;15.80;99.90;;;;;;5140710;28;20038;-85
2023/08/04 03:43:56;;;;;;;2.97;1.50;;;15.70;99.90;;;;;;5124076;28;20035;-86
2023/08/04 03:46:28;;;;;;;2.35;1.20;;;15.70;99.90;;;;;;5141254;28;20325;-86
2023/08/04 03:48:59;;;;;;;1.58;1.42;;;15.60;99.90;;;;;;5139862;28;20039;-85
2023/08/04 03:51:31;;;;;;;2.58;1.58;;;15.60;99.90;;;;;;5123188;28;20213;-85
2023/08/04 03:54:03;;;;;;;3.17;2.10;;;15.60;99.90;;;;;;5139156;28;20035;-86
2023/08/04 03:56:34;;;;;;;1.88;1.70;;;15.60;99.90;;;;;;5139721;28;20041;-86
2023/08/04 03:59:08;;;;;;;4.82;1.65;;;15.60;99.90;;;;;;5108059;28;20348;-85
2023/08/04 04:01:39;;;;;;;2.10;1.63;;;15.60;99.90;;;;;;5140949;28;20414;-85
2023/08/04 04:04:12;;;;;;;1.23;1.13;;;15.60;99.90;;;;;;5141080;28;20194;-84
2023/08/04 04:06:51;;;;;;;3.40;1.60;;;15.60;99.90;;;;;;5123657;28;20038;-85
2023/08/04 04:09:25;;;;;;;2.03;1.27;;;15.70;99.90;;;;;;5156023;28;20038;-86
2023/08/04 04:11:57;;;;;;;1.83;1.50;;;15.70;99.90;;;;;;5123536;28;20039;-86
2023/08/04 04:18:15;;;;;;;1.50;1.15;;;15.60;99.90;;;;;;5139826;28;20035;-84
2023/08/04 04:20:50;;;;;;;3.42;1.52;;;15.70;99.90;;;;;;5140237;28;20301;-84
2023/08/04 04:23:21;;;;;;;1.60;1.10;;;15.70;99.90;;;;;;5141380;28;20232;-85
2023/08/04 04:25:57;;;;;;;2.88;1.60;;;15.80;99.90;;;;;;5142757;28;20034;-85
2023/08/04 04:28:29;;;;;;;1.60;1.23;;;15.80;99.90;;;;;;5142678;28;20039;-86
2023/08/04 04:31:08;;;;;;;1.38;1.27;;;15.90;99.90;;;;;;5155166;28;20045;-86
2023/08/04 04:33:46;;;;;;;1.45;1.35;;;16.00;99.90;;;;;;5139353;28;20034;-85
2023/08/04 04:36:18;;;;;;;2.70;1.33;;;16.10;99.90;;;;;;5140553;28;20030;-85
2023/08/04 04:38:53;;;;;;;1.88;1.42;;;16.10;99.90;;;;;;5139897;28;20035;-84
2023/08/04 04:41:34;;;;;;;2.25;1.52;;;16.20;99.90;;;;;;5152798;28;20229;-84
2023/08/04 04:44:11;;;;;;;1.55;1.45;;;16.20;99.90;;;;;;5122610;28;20039;-85
2023/08/04 04:46:45;;;;;;;4.18;1.42;;;16.20;99.90;;;;;;5138733;28;20041;-85
2023/08/04 04:49:19;;;;;;;2.22;1.73;;;16.20;99.90;;;;;;5139075;28;20034;-85
2023/08/04 04:51:56;;;;;;;1.52;1.25;;;16.30;99.90;;;;;;5138729;28;20042;-84
2023/08/04 04:54:28;;;;;;;1.42;1.20;;;16.40;99.90;;;;;;5138811;28;20232;-86
2023/08/04 04:56:59;;;;;;;1.20;1.10;;;16.30;99.90;;;;;;5138182;28;20043;-85
2023/08/04 04:59:34;;;;;;;2.53;1.33;;;16.40;99.90;;;;;;5122192;28;20038;-86
2023/08/04 05:02:11;;;;;;;;;;;16.40;99.90;;;;;;5121998;28;20061;-86
2023/08/04 05:04:47;;;;;;;2.08;1.02;;;16.30;99.90;;;;;;5138775;28;19913;-86
2023/08/04 05:07:18;;;;;;;1.73;1.30;;;16.40;99.90;;;;;;5140332;28;20045;-87
2023/08/04 05:09:50;;;;;;;1.92;1.30;;;16.40;99.90;;;;;;5139278;28;20046;-85
2023/08/04 05:12:24;;;;;;;3.50;1.25;;;16.40;99.90;;;;;;5124050;28;20044;-86
2023/08/04 05:14:59;;;;;;;1.30;1.20;;;16.40;99.90;;;;;;5140050;28;20041;-86
2023/08/04 05:17:31;;;;;;;1.58;1.05;;;16.50;99.90;;;;;;5122510;28;20037;-85
2023/08/04 05:20:07;;;;;;;1.42;1.27;;;16.50;99.90;;;;;;5138380;28;20033;-85
2023/08/04 05:22:46;;;;;;;3.10;1.30;;;16.60;99.90;;;;;;5140341;28;20228;-86
2023/08/04 05:25:20;;;;;;;1.23;1.13;;;16.70;99.90;;;;;;5223958;28;20048;-86
2023/08/04 05:27:56;;;;;;;1.52;1.40;;;16.80;99.90;;;;;;5141754;28;20043;-87
2023/08/04 05:30:32;;;;;;;2.60;1.48;;;17.00;99.90;;;;;;5156065;28;20038;-86
2023/08/04 05:33:04;;;;;;;1.65;1.17;;;17.10;99.90;;;;;;5140100;28;20038;-85
2023/08/04 05:35:40;;;;;;;1.67;1.25;;;17.10;99.90;;;;;;5122053;28;20220;-86
2023/08/04 05:38:13;;;;;;;1.73;1.52;;;17.20;99.90;;;;;;5140305;28;20034;-86
2023/08/04 05:40:49;;;;;;;2.65;1.30;;;17.30;99.90;;;;;;5121163;28;20047;-85
2023/08/04 05:43:20;;;;;;;1.40;1.30;;;17.30;99.90;;;;;;5137934;28;20244;-86
2023/08/04 05:45:52;;;;;;;2.63;1.10;;;17.40;99.90;;;;;;5121666;28;20366;-85
2023/08/04 05:48:26;;;;;;;1.73;1.40;;;17.50;99.90;;;;;;5121415;28;20043;-85
2023/08/04 05:50:59;;;;;;;1.60;1.10;;;17.60;99.90;;;;;;5122290;28;20049;-86
2023/08/04 05:53:31;;;;;;;2.97;1.10;;;17.70;99.90;;;;;;5138954;28;20034;-85
2023/08/04 05:56:10;;;;;;;2.00;1.13;;;17.70;99.90;;;;;;5138397;28;20224;-88
2023/08/04 05:58:42;;;;;;;3.00;1.60;;;17.80;99.90;;;;;;5165561;28;20038;-87
2023/08/04 06:01:17;;;;;;;1.35;1.20;;;17.80;99.90;;;;;;5149434;28;20038;-86
2023/08/04 06:03:49;;;;;;;5.57;1.52;;;17.80;99.90;;;;;;5150406;28;20049;-85
2023/08/04 06:06:25;;;;;;;3.10;1.55;;;17.80;99.90;;;;;;5148916;28;20041;-86
2023/08/04 06:08:59;;;;;;;1.75;1.50;;;17.70;99.90;;;;;;5151335;28;20031;-87
2023/08/04 06:11:38;;;;;;;2.00;1.75;;;17.70;99.90;;;;;;5144639;28;20184;-85
2023/08/04 06:14:10;;;;;;;1.40;1.30;;;17.70;99.90;;;;;;5105215;28;20041;-86
2023/08/04 06:16:51;;;;;;;1.38;1.02;;;17.60;99.90;;;;;;5094202;28;20055;-86
2023/08/04 06:19:28;;;;;;;2.28;1.50;;;17.50;99.90;;;;;;5124292;28;20047;-85
2023/08/04 06:22:01;;;;;;;1.48;1.23;;;17.40;99.90;;;;;;5120404;28;20041;-85
2023/08/04 06:24:36;;;;;;;1.67;1.38;;;17.40;99.90;;;;;;5088461;28;20050;-85
2023/08/04 06:27:13;;;;;;;2.42;1.27;;;17.40;99.90;;;;;;5153810;28;20035;-87
2023/08/04 06:30:00;;;;;;;1.85;1.50;;;17.50;99.90;;;;;;5136355;28;20350;-88
2023/08/04 06:32:37;;;;;;;1.52;1.42;;;17.40;99.90;;;;;;5176411;28;20041;-86
2023/08/04 06:35:25;;;;;;;3.30;1.50;;;17.40;99.90;;;;;;5148083;28;20042;-86
2023/08/04 06:38:12;;;;;;;0.90;0.90;;;17.50;99.90;;;;;;5139805;28;20039;-86
2023/08/04 06:40:51;;;;;;;1.65;1.10;;;17.80;99.90;;;;;;5162541;28;20035;-86
2023/08/04 06:43:33;;;;;;;1.60;1.35;;;18.10;99.90;;;;;;5158522;28;20124;-87
2023/08/04 06:46:07;;;;;;;1.38;1.23;;;18.60;99.90;;;;;;5176521;28;20060;-88
2023/08/04 06:48:42;;;;;;;1.05;1.02;;;18.90;99.90;;;;;;5145451;28;20348;-87
2023/08/04 06:51:19;;;;;;;1.33;0.90;;;19.20;26.70;;;;;;5150541;28;20112;-87
2023/08/04 06:53:53;;;;;;;2.33;1.48;;;19.60;1.00;;;;;;5143537;28;20045;-87
2023/08/04 06:56:26;;;;;;;1.95;1.45;;;19.80;1.00;;;;;;5150369;28;20034;-86
2023/08/04 06:59:10;;;;;;;3.60;1.17;;;20.20;38.70;;;;;;5159635;28;20038;-86
2023/08/04 07:01:42;;;;;;;1.45;1.20;;;20.60;1.00;;;;;;5142103;28;20108;-85
2023/08/04 07:04:14;;;;;;;3.85;1.20;;;20.90;1.00;;;;;;5173940;28;20026;-85
2023/08/04 07:06:53;;;;;;;1.55;1.45;;;21.40;1.00;;;;;;5142011;28;20045;-87
2023/08/04 07:09:28;;;;;;;1.88;1.00;;;21.90;99.90;;;;;;5172788;28;20053;-87
2023/08/04 07:12:03;;;;;;;1.48;1.00;;;22.40;1.00;;;;;;5158470;28;20039;-86
2023/08/04 07:14:41;;;;;;;1.52;1.02;;;22.60;99.90;;;;;;5172605;28;20350;-86
2023/08/04 07:17:15;;;;;;;1.15;1.00;;;22.80;1.00;;;;;;5141835;28;20118;-88
2023/08/04 07:19:59;;;;;;;1.40;1.10;;;22.90;1.00;;;;;;5160455;28;20037;-87
2023/08/04 07:22:37;;;;;;;1.23;1.00;;;22.90;1.00;;;;;;5145740;28;20034;-87
2023/08/04 07:25:28;;;;;;;;;;;22.90;99.90;;;;;;5164592;28;20039;-85
2023/08/04 07:28:03;;;;;;;1.05;0.80;;;22.80;99.90;;;;;;5193334;28;19902;-86
2023/08/04 07:31:06;;;;;;;1.45;0.93;;;22.90;1.00;;;;;;5163337;28;20042;-87
2023/08/04 07:36:34;;;;;;;1.75;1.15;;;23.00;1.00;;;;;;5128812;28;20054;-69
2023/08/04 07:39:06;;;;;;;0.82;0.80;;;22.50;99.90;;;;;;5085181;28;20035;-70
2023/08/04 07:41:41;;;;;;;1.00;1.00;;;22.60;87.90;;;;;;5087999;28;20039;-69
2023/08/04 07:44:16;;;;;;;1.80;1.15;;;22.80;99.90;;;;;;5114095;28;20545;-68
2023/08/04 07:46:49;;;;;;;;;;;23.20;99.90;;;;;;5105047;29;20035;-68
2023/08/04 07:49:31;;;;;;;1.00;0.90;;;23.60;1.00;;;;;;5093678;29;19911;-72
2023/08/04 07:52:03;;;;;;;1.02;0.80;;;23.80;1.00;;;;;;5125717;28;20035;-70
2023/08/04 07:54:39;;;;;;;2.08;0.93;;;23.90;1.00;;;;;;5107734;28;20043;-70
2023/08/04 07:57:13;;;;;;;1.27;1.00;;;24.10;1.00;;;;;;5114086;28;20035;-70
2023/08/04 07:59:46;;;;;;;0.98;0.93;;;24.20;1.00;;;;;;5097305;28;20039;-70
2023/08/04 08:02:31;;;;;;;2.42;0.93;;;24.00;1.00;;;;;;5107433;28;20054;-70
2023/08/04 08:05:03;;;;;;;;;;;23.80;1.00;;;;;;5078434;29;20051;-70
2023/08/04 08:07:35;;;;;;;1.55;1.30;;;23.30;1.00;;;;;;5105769;28;19911;-72
2023/08/04 08:10:09;;;;;;;1.90;1.33;;;23.50;99.90;;;;;;5108534;28;20146;-69
2023/08/04 08:12:41;;;;;;;1.63;1.20;;;23.80;1.00;;;;;;5096589;29;20048;-70
2023/08/04 08:15:13;;;;;;;1.67;1.40;;;23.90;1.00;;;;;;5092441;29;20044;-69
2023/08/04 08:17:48;;;;;;;1.90;1.35;;;24.20;1.00;;;;;;5094268;29;20062;-69
2023/08/04 08:20:22;;;;;;;1.67;1.40;;;24.20;1.00;;;;;;5092362;29;20050;-67
2023/08/04 08:22:59;;;;;;;1.33;1.23;;;24.00;1.00;;;;;;5092867;29;20050;-69
2023/08/04 08:25:30;;;;;;;2.03;1.50;;;24.10;1.00;;;;;;5096475;29;20066;-68
2023/08/04 08:28:03;;;;;;;2.95;1.33;;;23.90;1.00;;;;;;5090430;28;20042;-69
2023/08/04 08:30:35;;;;;;;1.98;1.52;;;23.80;1.00;;;;;;5103155;28;20311;-69
2023/08/04 08:33:09;;;;;;;1.83;1.25;;;23.60;1.00;;;;;;5100594;28;20052;-66
2023/08/04 08:35:43;;;;;;;1.50;1.40;;;23.40;1.00;;;;;;5084952;29;20028;-70
2023/08/04 08:38:15;;;;;;;1.40;1.23;;;23.30;1.00;;;;;;5090815;29;20044;-67
2023/08/04 08:40:48;;;;;;;2.35;1.20;;;23.20;1.00;;;;;;5102953;28;20408;-68
2023/08/04 08:43:23;;;;;;;1.50;1.40;;;23.00;1.00;;;;;;5084475;29;20291;-68
2023/08/04 08:45:57;;;;;;;1.13;0.95;;;22.80;90.30;;;;;;5086605;29;20524;-70
2023/08/04 08:48:39;;;;;;;1.80;1.25;;;22.70;1.00;;;;;;5104246;29;20056;-68
2023/08/04 08:51:17;;;;;;;4.43;1.90;;;22.60;99.90;;;;;;5125048;28;20046;-67
2023/08/04 08:53:49;;;;;;;1.95;1.30;;;22.60;1.00;;;;;;5160120;28;20063;-70
2023/08/04 08:56:21;;;;;;;1.50;1.40;;;22.50;1.00;;;;;;5154973;28;20068;-68
2023/08/04 08:58:56;;;;;;;2.65;1.48;;;22.30;99.90;;;;;;5093263;28;20043;-71
2023/08/04 09:01:30;;;;;;;2.45;1.30;;;22.40;99.90;;;;;;5092326;28;20047;-67
2023/08/04 09:04:07;;;;;;;1.33;1.23;;;22.40;99.90;;;;;;5096049;28;20056;-68
2023/08/04 09:06:41;;;;;;;1.42;1.17;;;22.40;1.00;;;;;;5088928;29;20243;-69
2023/08/04 09:09:13;;;;;;;2.67;1.25;;;22.80;99.90;;;;;;5106557;29;20035;-67
2023/08/04 09:11:44;;;;;;;4.00;1.20;;;23.20;1.00;;;;;;5092407;29;20221;-67
2023/08/04 09:14:16;;;;;;;2.85;1.50;;;23.50;1.00;;;;;;5083438;28;20066;-71
2023/08/04 09:16:48;;;;;;;2.47;1.33;;;23.60;1.00;;;;;;5080542;28;20054;-70
2023/08/04 09:19:28;;;;;;;2.15;1.33;;;24.10;1.00;;;;;;5082118;28;20061;-70
2023/08/04 09:21:59;;;;;;;1.60;1.33;;;24.70;99.90;;;;;;5078537;29;20288;-69
2023/08/04 09:24:32;;;;;;;1.38;1.10;;;24.90;99.90;;;;;;5090799;29;20299;-67
2023/08/04 09:27:06;;;;;;;2.97;1.10;;;25.10;1.00;;;;;;5095185;29;20054;-69
2023/08/04 09:29:37;;;;;;;1.20;0.97;;;24.90;99.90;;;;;;5091302;28;20070;-69
2023/08/04 09:32:13;;;;;;;2.58;1.08;;;25.20;99.90;;;;;;5108052;29;20213;-66
2023/08/04 09:34:47;;;;;;;1.50;1.15;;;25.20;99.90;;;;;;5095158;29;20047;-65
2023/08/04 09:37:23;;;;;;;2.75;1.08;;;25.30;99.90;;;;;;5096274;29;20249;-72
2023/08/04 09:39:55;;;;;;;1.10;1.00;;;25.50;99.90;;;;;;5093784;29;20046;-67
2023/08/04 09:42:27;;;;;;;1.33;1.00;;;25.60;99.90;;;;;;5090398;29;20059;-69
2023/08/04 09:44:59;;;;;;;1.60;1.50;;;25.70;99.90;;;;;;5079262;29;20058;-69
2023/08/04 09:47:33;;;;;;;2.08;1.65;;;25.70;99.90;;;;;;5107219;28;20058;-67
2023/08/04 09:50:15;;;;;;;1.73;1.10;;;25.60;23.50;;;;;;5075624;29;20056;-72
2023/08/04 09:52:48;;;;;;;0.93;0.77;;;25.50;99.90;;;;;;5085219;28;20052;-66
2023/08/04 09:55:23;;;;;;;4.10;1.30;;;25.40;10.50;;;;;;5079962;28;20052;-69
2023/08/04 09:57:54;;;;;;;2.55;1.40;;;25.20;99.90;;;;;;5087042;28;20287;-69
2023/08/04 10:00:30;;;;;;;1.25;1.08;;;24.90;64.10;;;;;;5073603;28;20048;-68
2023/08/04 10:03:03;;;;;;;2.70;1.30;;;24.70;99.90;;;;;;5094219;29;20040;-67
2023/08/04 10:05:36;;;;;;;1.20;1.10;;;23.90;99.90;;;;;;5081178;28;20035;-68
2023/08/04 10:08:08;;;;;;;2.13;1.17;;;23.90;99.90;;;;;;5075649;29;20320;-68
2023/08/04 10:10:40;;;;;;;1.27;1.00;;;23.80;1.00;;;;;;5089343;29;20233;-69
2023/08/04 10:13:12;;;;;;;1.98;1.08;;;23.80;99.90;;;;;;5104222;28;20252;-69
2023/08/04 10:15:47;;;;;;;2.67;1.13;;;23.50;99.90;;;;;;5086080;28;20260;-70
2023/08/04 10:18:19;;;;;;;0.85;0.85;;;23.60;1.00;;;;;;5088681;28;20421;-71
2023/08/04 10:20:52;;;;;;;2.25;1.40;;;23.70;1.00;;;;;;5100401;28;20048;-69
2023/08/04 10:23:24;;;;;;;2.08;1.10;;;23.60;1.00;;;;;;5083642;28;20052;-69
2023/08/04 10:26:01;;;;;;;1.52;1.20;;;23.40;1.00;;;;;;5071245;29;20052;-69
2023/08/04 10:28:37;;;;;;;1.55;0.93;;;23.50;1.00;;;;;;5080087;28;20057;-69
2023/08/04 10:31:13;;;;;;;1.83;1.00;;;23.60;1.00;;;;;;5096824;29;20461;-69
2023/08/04 10:34:36;;;;;;;0.85;0.85;;;23.50;1.00;;;;;;5059882;28;20059;-70
2023/08/04 10:37:11;;;;;;;0.90;0.90;;;23.50;1.00;;;;;;5098372;28;20056;-69
2023/08/04 10:40:05;;;;;;;1.13;1.00;;;23.40;99.90;;;;;;5083189;28;20364;-67
2023/08/04 10:43:04;;;;;;;1.33;0.93;;;23.40;99.90;;;;;;5123592;28;20252;-67
2023/08/04 10:45:55;;;;;;;3.80;1.50;;;23.40;1.00;;;;;;5099564;28;20277;-70
2023/08/04 10:48:26;;;;;;;1.40;1.30;;;23.40;1.00;;;;;;5072153;29;20419;-66
2023/08/04 10:51:01;;;;;;;1.58;1.30;;;23.30;1.00;;;;;;5079458;29;20039;-66
2023/08/04 10:53:40;;;;;;;2.30;1.50;;;23.20;1.00;;;;;;5082462;28;20059;-66
2023/08/04 10:56:12;;;;;;;2.45;1.40;;;23.10;1.00;;;;;;5074401;28;20340;-70
2023/08/04 10:58:46;;;;;;;1.33;1.20;;;22.90;99.90;;;;;;5152917;28;20048;-67
2023/08/04 11:01:17;;;;;;;1.80;1.70;;;22.70;1.00;;;;;;5079932;28;20146;-70
2023/08/04 11:03:50;;;;;;;2.15;1.33;;;22.60;1.00;;;;;;5172460;28;20046;-68
2023/08/04 11:06:24;;;;;;;1.60;1.50;;;22.60;1.00;;;;;;5172012;28;20589;-69
2023/08/04 11:08:58;;;;;;;2.17;1.50;;;22.60;1.00;;;;;;5130175;28;20047;-70
2023/08/04 11:11:29;;;;;;;3.40;1.85;;;22.70;1.00;;;;;;5089570;28;20441;-68
2023/08/04 11:14:03;;;;;;;1.52;1.35;;;22.60;84.80;;;;;;5086011;29;20057;-67
2023/08/04 11:16:36;;;;;;;2.15;1.50;;;22.90;99.90;;;;;;5104276;28;20048;-68
2023/08/04 11:19:13;;;;;;;1.95;1.60;;;23.40;17.80;;;;;;5082670;29;20040;-68
2023/08/04 11:21:45;;;;;;;2.47;1.45;;;23.60;1.00;;;;;;5086856;28;20052;-72
2023/08/04 11:24:23;;;;;;;1.45;1.35;;;23.60;99.90;;;;;;5098104;28;20066;-70
2023/08/04 11:26:59;;;;;;;1.58;1.40;;;23.70;1.00;;;;;;5085467;29;20050;-68
2023/08/04 11:29:31;;;;;;;3.95;2.00;;;23.70;99.90;;;;;;5083046;28;20367;-69
2023/08/04 11:32:22;;;;;;;4.75;1.60;;;23.90;1.00;;;;;;5069690;28;20391;-66
2023/08/04 11:34:54;;;;;;;3.40;1.77;;;24.10;99.90;;;;;;5085132;28;20056;-69
2023/08/04 11:37:27;;;;;;;2.92;1.65;;;23.90;1.00;;;;;;5073978;29;20048;-72
2023/08/04 11:39:58;;;;;;;2.15;1.58;;;23.80;99.90;;;;;;5098013;28;20356;-72
2023/08/04 11:42:30;;;;;;;1.65;1.52;;;23.50;1.00;;;;;;5094406;28;20048;-74
2023/08/04 11:45:18;;;;;;;1.95;1.80;;;23.40;56.00;;;;;;5115448;28;20046;-72
2023/08/04 11:47:56;;;;;;;2.15;1.50;;;23.20;1.00;;;;;;5128333;28;20036;-74
2023/08/04 11:50:28;;;;;;;4.32;1.73;;;23.00;1.00;;;;;;5092949;28;20468;-75
2023/08/04 11:53:00;;;;;;;3.55;1.35;;;22.80;1.00;;;;;;5094873;29;20044;-72
2023/08/04 11:55:34;;;;;;;1.50;1.40;;;22.80;1.00;;;;;;5094199;29;20387;-70
2023/08/04 11:58:05;;;;;;;2.28;2.08;;;22.70;1.00;;;;;;5061504;29;20044;-71
2023/08/04 12:00:42;;;;;;;2.17;1.60;;;22.40;1.00;;;;;;5083808;28;20356;-70
2023/08/04 12:03:13;;;;;;;1.70;1.40;;;22.00;1.00;;;;;;5079116;28;20059;-70
2023/08/04 12:05:45;;;;;;;2.50;1.60;;;21.50;1.00;;;;;;5069479;28;20054;-73
2023/08/04 12:08:17;;;;;;;4.82;1.40;;;21.20;1.00;;;;;;5089929;29;20367;-68
2023/08/04 12:11:02;;;;;;;2.97;1.42;;;21.10;2.10;;;;;;5067954;29;20181;-67
2023/08/04 12:13:37;;;;;;;2.53;1.67;;;21.00;1.00;;;;;;5070221;29;20056;-72
2023/08/04 12:16:17;;;;;;;1.50;1.40;;;20.80;99.90;;;;;;5051354;29;20215;-70
2023/08/04 12:18:49;;;;;;;1.30;1.20;;;20.60;99.90;;;;;;5074697;28;20223;-65
2023/08/04 12:21:20;;;;;;;2.55;1.30;;;20.50;99.90;;;;;;5053684;28;20351;-68
2023/08/04 12:23:55;;;;;;;1.45;1.35;;;20.50;99.90;;;;;;5087554;28;20043;-69
2023/08/04 12:26:26;;;;;;;;;;;20.50;99.90;;;;;;5111788;28;20287;-67
2023/08/04 12:28:58;;;;;;;1.92;1.40;;;20.40;99.90;;;;;;5086495;29;20207;-67
2023/08/04 12:31:35;;;;;;;3.47;1.23;;;20.30;99.90;;;;;;5096363;28;20035;-68
2023/08/04 12:34:10;;;;;;;3.13;1.42;;;20.10;99.90;;;;;;5077146;29;20062;-67
2023/08/04 12:36:44;;;;;;;1.30;1.20;;;20.10;99.90;;;;;;5069023;29;20257;-64
2023/08/04 12:39:18;;;;;;;1.48;1.38;;;20.00;99.90;;;;;;5085402;29;20252;-66
2023/08/04 12:41:52;;;;;;;1.80;1.42;;;19.90;99.90;;;;;;5088347;29;20035;-66
2023/08/04 12:44:24;;;;;;;2.63;1.45;;;19.80;99.90;;;;;;5078343;28;20260;-67
2023/08/04 12:46:56;;;;;;;2.05;1.30;;;20.10;99.90;;;;;;5067801;29;20243;-68
2023/08/04 12:49:30;;;;;;;2.58;1.40;;;20.30;99.90;;;;;;5084698;28;20052;-65
2023/08/04 12:52:04;;;;;;;3.65;1.50;;;20.40;99.90;;;;;;5074701;29;20291;-68
2023/08/04 12:54:36;;;;;;;2.67;1.77;;;20.40;99.90;;;;;;5086181;29;20315;-69
2023/08/04 12:57:09;;;;;;;1.33;1.20;;;20.10;99.90;;;;;;5087428;29;20431;-66
2023/08/04 12:59:46;;;;;;;1.98;1.05;;;19.80;99.90;;;;;;5071770;29;20055;-67
2023/08/04 13:02:17;;;;;;;1.20;1.10;;;19.40;99.90;;;;;;5082427;29;20324;-67
2023/08/04 13:04:49;;;;;;;1.42;1.33;;;19.20;99.90;;;;;;5088615;29;20036;-65
2023/08/04 13:07:20;;;;;;;3.38;1.40;;;19.00;99.90;;;;;;5090449;29;20337;-65
2023/08/04 13:09:52;;;;;;;1.27;1.08;;;18.80;99.90;;;;;;5089996;29;20039;-66
2023/08/04 13:12:24;;;;;;;1.58;1.20;;;18.70;99.90;;;;;;5088459;29;20040;-68
2023/08/04 13:14:55;;;;;;;2.92;1.20;;;18.60;99.90;;;;;;5091296;28;20043;-68
2023/08/04 13:17:31;;;;;;;1.63;1.30;;;18.50;99.90;;;;;;5085912;29;20286;-68
2023/08/04 13:20:08;;;;;;;1.20;1.10;;;18.50;99.90;;;;;;5088308;28;20047;-66
2023/08/04 13:22:40;;;;;;;1.23;1.13;;;18.30;99.90;;;;;;5070318;29;20054;-67
2023/08/04 13:25:11;;;;;;;1.88;1.00;;;18.10;99.90;;;;;;5100592;29;20047;-68
2023/08/04 13:27:46;;;;;;;1.25;1.08;;;17.90;99.90;;;;;;5082454;28;20040;-67
2023/08/04 13:30:18;;;;;;;3.55;1.30;;;17.80;99.90;;;;;;5068577;28;20043;-68
2023/08/04 13:32:52;;;;;;;1.13;1.02;;;17.80;99.90;;;;;;5071043;28;21298;-66
2023/08/04 13:35:26;;;;;;;;;;;17.80;99.90;;;;;;5088704;28;20054;-66
2023/08/04 13:37:57;;;;;;;2.22;1.23;;;17.80;99.90;;;;;;5088296;29;19911;-66
2023/08/04 13:40:32;;;;;;;0.90;0.80;;;17.80;99.90;;;;;;5086128;28;20498;-67